createdAt,value
2023-04-08T00:01:01.477Z,17.85
2023-04-08T00:03:29.368Z,20.13
2023-04-08T00:05:57.134Z,19.02
2023-04-08T00:08:26.223Z,19.90
2023-04-08T00:10:53.937Z,19.65
2023-04-08T00:13:21.684Z,22.95
2023-04-08T00:15:49.437Z,20.92
2023-04-08T00:18:18.513Z,17.52
2023-04-08T00:20:46.504Z,22.80
2023-04-08T00:23:14.194Z,18.38
2023-04-08T00:25:43.482Z,17.25
2023-04-08T00:28:11.176Z,17.25
2023-04-08T00:30:38.948Z,15.82
2023-04-08T00:33:06.994Z,16.45
2023-04-08T00:35:34.791Z,19.23
2023-04-08T00:38:03.372Z,16.55
2023-04-08T00:40:31.124Z,20.70
2023-04-08T00:43:00.432Z,16.98
2023-04-08T00:45:28.233Z,17.27
2023-04-08T00:47:56.392Z,16.33
2023-04-08T00:50:24.212Z,18.27
2023-04-08T00:52:51.908Z,15.00
2023-04-08T00:55:19.633Z,17.13
2023-04-08T00:57:47.688Z,14.63
2023-04-08T01:00:17.501Z,15.68
2023-04-08T01:02:52.609Z,19.05
2023-04-08T01:05:35.793Z,16.52
2023-04-08T01:08:08.014Z,16.67
2023-04-08T01:10:38.293Z,18.25
2023-04-08T01:13:10.217Z,16.13
2023-04-08T01:15:41.325Z,17.83
2023-04-08T01:18:13.515Z,17.08
2023-04-08T01:20:43.060Z,20.65
2023-04-08T01:23:19.100Z,16.05
2023-04-08T01:25:50.570Z,17.08
2023-04-08T01:28:21.089Z,18.63
2023-04-08T01:30:50.174Z,17.88
2023-04-08T01:33:19.321Z,18.00
2023-04-08T01:35:47.482Z,19.35
2023-04-08T01:38:18.385Z,16.83
2023-04-08T01:40:48.255Z,20.45
2023-04-08T01:43:18.202Z,19.45
2023-04-08T01:45:48.003Z,22.42
2023-04-08T01:48:16.448Z,18.73
2023-04-08T01:50:45.543Z,17.25
2023-04-08T01:53:13.718Z,17.60
2023-04-08T01:55:43.017Z,18.45
2023-04-08T01:58:20.223Z,18.63
2023-04-08T02:00:48.379Z,21.10
2023-04-08T02:03:19.678Z,22.50
2023-04-08T02:05:47.746Z,21.50
2023-04-08T02:08:15.443Z,18.42
2023-04-08T02:10:43.114Z,19.02
2023-04-08T02:13:12.211Z,21.77
2023-04-08T02:15:46.088Z,19.45
2023-04-08T02:18:17.383Z,21.95
2023-04-08T02:20:48.850Z,19.58
2023-04-08T02:23:22.247Z,20.35
2023-04-08T02:25:51.489Z,21.58
2023-04-08T02:28:21.499Z,21.33
2023-04-08T02:30:51.874Z,22.02
2023-04-08T02:33:22.079Z,18.02
2023-04-08T02:35:52.090Z,21.75
2023-04-08T02:38:20.248Z,20.58
2023-04-08T02:40:51.066Z,20.08
2023-04-08T02:43:20.260Z,19.90
2023-04-08T02:45:48.139Z,21.98
2023-04-08T02:48:15.848Z,19.25
2023-04-08T02:50:43.522Z,22.00
2023-04-08T02:53:11.259Z,25.10
2023-04-08T02:55:39.575Z,19.25
2023-04-08T02:58:07.289Z,23.30
2023-04-08T03:00:37.238Z,22.33
2023-04-08T03:03:05.092Z,22.95
2023-04-08T03:05:32.916Z,21.08
2023-04-08T03:08:00.703Z,20.75
2023-04-08T03:10:28.497Z,22.98
2023-04-08T03:12:56.189Z,21.02
2023-04-08T03:15:23.866Z,20.88
2023-04-08T03:17:52.979Z,21.25
2023-04-08T03:20:20.759Z,24.27
2023-04-08T03:22:48.556Z,22.45
2023-04-08T03:25:16.273Z,22.42
2023-04-08T03:27:43.933Z,21.50
2023-04-08T03:30:12.114Z,23.75
2023-04-08T03:32:40.061Z,23.05
2023-04-08T03:35:10.405Z,21.77
2023-04-08T03:37:38.082Z,25.80
2023-04-08T03:40:06.817Z,26.80
2023-04-08T03:42:35.110Z,25.13
2023-04-08T03:45:02.852Z,22.95
2023-04-08T03:47:30.580Z,23.08
2023-04-08T03:49:58.345Z,25.30
2023-04-08T03:52:27.394Z,23.48
2023-04-08T03:54:55.128Z,23.55
2023-04-08T03:57:22.856Z,20.15
2023-04-08T03:59:50.573Z,22.73
2023-04-08T04:02:18.488Z,22.77
2023-04-08T04:04:46.362Z,25.38
2023-04-08T04:07:14.151Z,23.92
2023-04-08T04:09:43.224Z,21.55
2023-04-08T04:12:10.866Z,23.90
2023-04-08T04:14:47.690Z,25.98
2023-04-08T04:17:15.404Z,24.88
2023-04-08T04:19:43.113Z,22.50
2023-04-08T04:22:10.841Z,25.08
2023-04-08T04:24:38.507Z,25.73
2023-04-08T04:27:07.537Z,24.08
2023-04-08T04:29:35.838Z,23.08
2023-04-08T04:32:03.491Z,24.55
2023-04-08T04:34:31.349Z,22.80
2023-04-08T04:36:59.017Z,22.80
2023-04-08T04:39:26.758Z,22.92
2023-04-08T04:41:54.440Z,23.48
2023-04-08T04:44:24.042Z,22.00
2023-04-08T04:46:51.806Z,22.05
2023-04-08T04:49:19.551Z,25.35
2023-04-08T04:51:47.222Z,23.75
2023-04-08T04:54:14.928Z,24.60
2023-04-08T04:59:36.076Z,22.13
2023-04-08T05:02:04.062Z,26.40
2023-04-08T05:04:31.845Z,24.17
2023-04-08T05:07:00.564Z,30.27
2023-04-08T05:09:28.300Z,23.63
2023-04-08T05:11:56.028Z,24.83
2023-04-08T05:14:23.786Z,24.92
2023-04-08T05:16:52.862Z,23.70
2023-04-08T05:19:20.576Z,25.05
2023-04-08T05:21:48.286Z,22.33
2023-04-08T05:24:16.134Z,26.33
2023-04-08T05:26:43.786Z,21.17
2023-04-08T05:29:11.469Z,25.85
2023-04-08T05:31:39.248Z,23.33
2023-04-08T05:34:08.358Z,21.60
2023-04-08T05:36:36.024Z,23.00
2023-04-08T05:39:03.736Z,22.30
2023-04-08T05:41:31.426Z,23.48
2023-04-08T05:43:59.160Z,24.02
2023-04-08T05:46:26.915Z,22.02
2023-04-08T05:48:54.609Z,24.15
2023-04-08T05:51:23.684Z,21.88
2023-04-08T05:53:51.407Z,26.00
2023-04-08T05:56:19.194Z,22.13
2023-04-08T05:58:47.194Z,21.65
2023-04-08T06:01:14.933Z,23.58
2023-04-08T06:03:42.698Z,22.88
2023-04-08T06:06:11.742Z,21.85
2023-04-08T06:08:41.119Z,20.17
2023-04-08T06:11:08.878Z,21.55
2023-04-08T06:13:37.266Z,21.42
2023-04-08T06:16:12.137Z,22.05
2023-04-08T06:18:40.357Z,20.55
2023-04-08T06:21:08.108Z,20.23
2023-04-08T06:23:35.947Z,20.23
2023-04-08T06:26:05.711Z,24.27
2023-04-08T06:28:33.711Z,22.02
2023-04-08T06:31:01.425Z,19.63
2023-04-08T06:33:29.175Z,19.83
2023-04-08T06:36:03.739Z,22.35
2023-04-08T06:38:31.975Z,22.38
2023-04-08T06:41:04.920Z,24.23
2023-04-08T06:43:32.955Z,25.27
2023-04-08T06:46:00.622Z,23.33
2023-04-08T06:48:30.424Z,23.58
2023-04-08T06:50:58.807Z,25.42
2023-04-08T06:53:27.930Z,23.05
2023-04-08T06:55:55.782Z,21.05
2023-04-08T06:58:24.818Z,21.98
2023-04-08T07:00:52.557Z,24.55
2023-04-08T07:03:20.342Z,25.45
2023-04-08T07:05:48.666Z,25.08
2023-04-08T07:08:16.472Z,30.17
2023-04-08T07:10:44.898Z,27.08
2023-04-08T07:13:13.198Z,25.55
2023-04-08T07:15:42.440Z,29.80
2023-04-08T07:18:10.646Z,29.30
2023-04-08T07:20:38.418Z,29.08
2023-04-08T07:23:06.241Z,31.85
2023-04-08T07:25:34.391Z,31.40
2023-04-08T07:28:02.215Z,30.23
2023-04-08T07:30:30.032Z,29.20
2023-04-08T07:33:00.751Z,31.08
2023-04-08T07:35:29.086Z,32.40
2023-04-08T07:37:57.636Z,33.95
2023-04-08T07:40:25.366Z,28.77
2023-04-08T07:42:53.164Z,28.70
2023-04-08T07:45:21.354Z,28.92
2023-04-08T07:47:49.073Z,28.65
2023-04-08T07:50:18.690Z,30.42
2023-04-08T07:52:46.374Z,25.60
2023-04-08T07:55:17.838Z,24.45
2023-04-08T07:57:46.117Z,24.63
2023-04-08T08:00:20.824Z,27.00
2023-04-08T08:02:49.190Z,25.10
2023-04-08T08:05:18.496Z,25.15
2023-04-08T08:07:46.308Z,24.67
2023-04-08T08:10:14.009Z,26.17
2023-04-08T08:12:41.862Z,27.23
2023-04-08T08:15:10.941Z,25.83
2023-04-08T08:17:38.669Z,22.75
2023-04-08T08:20:07.964Z,20.77
2023-04-08T08:22:47.143Z,21.23
2023-04-08T08:25:26.172Z,21.23
2023-04-08T08:27:55.370Z,24.00
2023-04-08T08:30:23.085Z,21.27
2023-04-08T08:32:52.152Z,24.17
2023-04-08T08:35:19.908Z,21.73
2023-04-08T08:37:49.054Z,22.27
2023-04-08T08:40:16.997Z,24.20
2023-04-08T08:42:52.287Z,28.27
2023-04-08T08:45:20.504Z,27.67
2023-04-08T08:47:51.209Z,23.70
2023-04-08T08:50:19.596Z,30.90
2023-04-08T08:52:52.681Z,27.55
2023-04-08T08:55:39.495Z,24.98
2023-04-08T08:58:21.501Z,28.60
2023-04-08T09:00:49.179Z,25.38
2023-04-08T09:03:19.075Z,26.50
2023-04-08T09:05:52.065Z,26.65
2023-04-08T09:08:29.261Z,24.48
2023-04-08T09:10:58.044Z,26.02
2023-04-08T09:13:26.239Z,26.38
2023-04-08T09:16:05.085Z,25.92
2023-04-08T09:18:33.727Z,27.75
2023-04-08T09:21:02.395Z,28.92
2023-04-08T09:23:42.469Z,26.45
2023-04-08T09:26:11.500Z,33.65
2023-04-08T09:28:40.004Z,27.73
2023-04-08T09:31:23.612Z,31.42
2023-04-08T09:33:52.559Z,29.67
2023-04-08T09:36:20.898Z,25.40
2023-04-08T09:38:50.022Z,27.27
2023-04-08T09:41:18.857Z,27.48
2023-04-08T09:43:50.456Z,27.65
2023-04-08T09:46:20.541Z,31.85
2023-04-08T09:48:52.330Z,29.00
2023-04-08T09:51:23.654Z,24.80
2023-04-08T09:54:00.600Z,26.20
2023-04-08T09:56:37.336Z,27.25
2023-04-08T09:59:12.854Z,23.90
2023-04-08T10:01:46.026Z,25.80
2023-04-08T10:04:18.435Z,26.35
2023-04-08T10:06:51.499Z,27.00
2023-04-08T10:09:21.349Z,25.70
2023-04-08T10:11:56.478Z,26.20
2023-04-08T10:14:27.051Z,26.05
2023-04-08T10:17:26.177Z,22.48
2023-04-08T10:19:54.226Z,23.42
2023-04-08T10:22:47.927Z,26.08
2023-04-08T10:25:33.661Z,23.05
2023-04-08T10:28:01.721Z,21.55
2023-04-08T10:30:43.277Z,24.17
2023-04-08T10:33:13.281Z,24.65
2023-04-08T10:35:46.049Z,25.33
2023-04-08T10:38:14.372Z,22.65
2023-04-08T10:40:44.560Z,25.23
2023-04-08T10:43:18.558Z,25.15
2023-04-08T10:45:51.151Z,24.52
2023-04-08T10:48:20.681Z,24.45
2023-04-08T10:50:55.118Z,24.73
2023-04-08T10:53:27.176Z,28.77
2023-04-08T10:55:56.424Z,27.23
2023-04-08T10:58:24.180Z,24.67
2023-04-08T11:00:51.879Z,24.10
2023-04-08T11:03:20.665Z,24.20
2023-04-08T11:05:51.604Z,26.15
2023-04-08T11:08:20.963Z,24.33
2023-04-08T11:10:49.556Z,27.80
2023-04-08T11:13:18.756Z,28.48
2023-04-08T11:15:46.786Z,24.75
2023-04-08T11:18:14.758Z,25.83
2023-04-08T11:20:44.843Z,27.48
2023-04-08T11:23:14.693Z,29.00
2023-04-08T11:25:43.106Z,27.48
2023-04-08T11:28:11.284Z,28.92
2023-04-08T11:30:42.026Z,29.02
2023-04-08T11:33:10.174Z,33.13
2023-04-08T11:35:51.049Z,30.52
2023-04-08T11:38:24.229Z,36.13
2023-04-08T11:40:55.284Z,54.97
2023-04-08T11:43:23.402Z,43.03
2023-04-08T11:45:52.901Z,49.63
2023-04-08T11:48:20.647Z,37.58
2023-04-08T11:50:48.477Z,32.55
2023-04-08T11:53:20.674Z,34.38
2023-04-08T11:55:49.463Z,31.10
2023-04-08T11:58:17.518Z,32.25
2023-04-08T12:00:45.694Z,40.40
2023-04-08T12:03:14.917Z,53.63
2023-04-08T12:05:43.189Z,51.80
2023-04-08T12:08:10.963Z,30.63
2023-04-08T12:10:38.924Z,33.83
2023-04-08T12:13:06.785Z,84.68
2023-04-08T12:15:34.441Z,31.10
2023-04-08T12:18:02.165Z,71.05
2023-04-08T12:20:31.322Z,32.97
2023-04-08T12:22:59.005Z,34.95
2023-04-08T12:25:27.662Z,31.25
2023-04-08T12:27:55.314Z,33.17
2023-04-08T12:30:22.980Z,27.70
2023-04-08T12:32:50.761Z,27.50
2023-04-08T12:35:18.513Z,29.70
2023-04-08T12:37:47.582Z,33.13
2023-04-08T12:40:16.215Z,31.60
2023-04-08T12:42:43.899Z,41.90
2023-04-08T12:45:11.803Z,31.52
2023-04-08T12:47:39.513Z,30.55
2023-04-08T12:50:09.814Z,26.25
2023-04-08T12:52:37.579Z,26.42
2023-04-08T12:55:07.989Z,27.05
2023-04-08T12:57:35.741Z,28.00
2023-04-08T13:00:04.214Z,30.40
2023-04-08T13:02:32.072Z,28.85
2023-04-08T13:04:59.894Z,27.98
2023-04-08T13:07:27.545Z,25.95
2023-04-08T13:09:55.296Z,26.77
2023-04-08T13:12:24.377Z,22.65
2023-04-08T13:14:52.048Z,22.90
2023-04-08T13:17:19.765Z,22.70
2023-04-08T13:19:47.911Z,23.55
2023-04-08T13:22:15.578Z,25.85
2023-04-08T13:24:43.402Z,24.40
2023-04-08T13:27:11.053Z,22.27
2023-04-08T13:29:40.106Z,25.25
2023-04-08T13:32:08.213Z,25.02
2023-04-08T13:34:35.987Z,27.55
2023-04-08T13:37:04.283Z,25.60
2023-04-08T13:39:32.111Z,26.48
2023-04-08T13:41:59.929Z,28.08
2023-04-08T13:44:27.712Z,26.08
2023-04-08T13:46:56.776Z,23.63
2023-04-08T13:49:24.508Z,22.30
2023-04-08T13:51:52.147Z,23.58
2023-04-08T13:54:19.881Z,25.55
2023-04-08T13:56:47.558Z,27.92
2023-04-08T13:59:15.377Z,26.08
2023-04-08T14:01:43.188Z,26.73
2023-04-08T14:04:12.416Z,22.27
2023-04-08T14:06:40.099Z,24.23
2023-04-08T14:09:07.811Z,21.77
2023-04-08T14:11:36.409Z,22.48
2023-04-08T14:14:05.977Z,22.77
2023-04-08T14:16:35.617Z,25.42
2023-04-08T14:19:03.393Z,22.73
2023-04-08T14:21:32.922Z,23.67
2023-04-08T14:24:02.516Z,22.45
2023-04-08T14:26:31.053Z,25.40
2023-04-08T14:28:58.759Z,21.98
2023-04-08T14:31:26.530Z,21.40
2023-04-08T14:33:54.236Z,22.60
2023-04-08T14:36:24.248Z,22.23
2023-04-08T14:38:53.734Z,23.63
2023-04-08T14:41:21.827Z,22.73
2023-04-08T14:43:50.009Z,22.23
2023-04-08T14:46:17.764Z,24.67
2023-04-08T14:48:45.437Z,20.70
2023-04-08T14:51:13.481Z,21.00
2023-04-08T14:53:41.197Z,19.40
2023-04-08T14:56:10.498Z,26.13
2023-04-08T14:58:38.249Z,100.57
2023-04-08T15:01:06.098Z,36.67
2023-04-08T15:03:33.919Z,46.28
2023-04-08T15:06:01.910Z,77.70
2023-04-08T15:08:29.669Z,65.03
2023-04-08T15:10:57.732Z,25.90
2023-04-08T15:13:26.750Z,23.23
2023-04-08T15:15:54.488Z,21.80
2023-04-08T15:18:22.159Z,23.48
2023-04-08T15:20:49.841Z,21.25
2023-04-08T15:23:17.982Z,20.08
2023-04-08T15:25:46.345Z,24.98
2023-04-08T15:28:13.984Z,25.75
2023-04-08T15:30:44.475Z,22.52
2023-04-08T15:33:12.254Z,24.23
2023-04-08T15:35:40.055Z,25.35
2023-04-08T15:38:07.825Z,24.10
2023-04-08T15:40:35.507Z,23.77
2023-04-08T15:43:03.844Z,24.52
2023-04-08T15:45:31.795Z,23.35
2023-04-08T15:48:00.873Z,24.95
2023-04-08T15:50:29.890Z,26.65
2023-04-08T15:52:57.927Z,25.15
2023-04-08T15:55:25.652Z,22.83
2023-04-08T15:57:56.457Z,27.10
2023-04-08T16:00:24.763Z,24.67
2023-04-08T16:02:52.772Z,24.92
2023-04-08T16:05:22.170Z,27.02
2023-04-08T16:07:50.097Z,26.38
2023-04-08T16:10:17.936Z,28.70
2023-04-08T16:12:46.260Z,26.77
2023-04-08T16:15:14.020Z,30.77
2023-04-08T16:17:41.745Z,26.65
2023-04-08T16:20:10.638Z,33.72
2023-04-08T16:22:39.754Z,28.52
2023-04-08T16:25:08.230Z,27.95
2023-04-08T16:27:36.988Z,33.10
2023-04-08T16:30:05.585Z,34.38
2023-04-08T16:32:33.289Z,35.90
2023-04-08T16:35:01.265Z,35.13
2023-04-08T16:37:29.048Z,35.70
2023-04-08T16:39:58.142Z,34.83
2023-04-08T16:42:26.050Z,37.05
2023-04-08T16:44:57.137Z,37.80
2023-04-08T16:47:25.078Z,37.75
2023-04-08T16:49:53.038Z,41.00
2023-04-08T16:52:21.071Z,42.85
2023-04-08T16:54:48.824Z,43.50
2023-04-08T16:57:18.141Z,36.78
2023-04-08T16:59:45.926Z,38.92
2023-04-08T17:02:13.676Z,42.45
2023-04-08T17:04:41.834Z,38.05
2023-04-08T17:07:09.606Z,36.17
2023-04-08T17:09:37.564Z,38.58
2023-04-08T17:12:05.549Z,37.00
2023-04-08T17:14:36.050Z,37.88
2023-04-08T17:17:03.722Z,34.95
2023-04-08T17:19:31.396Z,36.30
2023-04-08T17:21:59.069Z,37.00
2023-04-08T17:24:26.838Z,38.65
2023-04-08T17:26:56.754Z,33.20
2023-04-08T17:29:24.518Z,39.40
2023-04-08T17:31:53.575Z,35.42
2023-04-08T17:34:21.248Z,38.65
2023-04-08T17:36:48.902Z,36.88
2023-04-08T17:39:16.587Z,40.40
2023-04-08T17:41:45.816Z,39.25
2023-04-08T17:44:13.927Z,37.58
2023-04-08T17:46:41.938Z,36.90
2023-04-08T17:49:12.865Z,41.40
2023-04-08T17:51:40.942Z,42.20
2023-04-08T17:54:08.697Z,40.50
2023-04-08T17:56:36.375Z,40.88
2023-04-08T17:59:04.194Z,46.20
2023-04-08T18:01:31.932Z,41.25
2023-04-08T18:03:59.845Z,38.60
2023-04-08T18:06:28.999Z,43.88
2023-04-08T18:08:56.678Z,40.03
2023-04-08T18:11:26.536Z,40.47
2023-04-08T18:13:54.577Z,38.17
2023-04-08T18:16:23.213Z,36.20
2023-04-08T18:18:51.398Z,37.22
2023-04-08T18:21:19.227Z,32.50
2023-04-08T18:23:48.357Z,29.77
2023-04-08T18:26:16.110Z,29.98
2023-04-08T18:28:43.785Z,30.83
2023-04-08T18:31:11.678Z,30.00
2023-04-08T18:33:39.693Z,33.28
2023-04-08T18:36:08.897Z,32.58
2023-04-08T18:38:37.126Z,33.78
2023-04-08T18:41:06.525Z,30.73
2023-04-08T18:43:34.806Z,31.70
2023-04-08T18:46:02.663Z,31.67
2023-04-08T18:48:30.387Z,33.10
2023-04-08T18:50:58.643Z,34.03
2023-04-08T18:53:26.480Z,30.25
2023-04-08T18:55:54.929Z,39.00
2023-04-08T18:58:24.038Z,34.05
2023-04-08T19:00:51.837Z,40.40
2023-04-08T19:03:19.634Z,41.88
2023-04-08T19:05:47.596Z,43.55
2023-04-08T19:08:15.380Z,42.25
2023-04-08T19:10:43.105Z,41.85
2023-04-08T19:13:10.772Z,43.08
2023-04-08T19:15:39.900Z,46.42
2023-04-08T19:18:07.727Z,46.58
2023-04-08T19:20:35.444Z,44.55
2023-04-08T19:23:03.489Z,44.33
2023-04-08T19:25:31.865Z,73.63
2023-04-08T19:27:59.534Z,35.47
2023-04-08T19:30:27.309Z,37.13
2023-04-08T19:32:56.438Z,32.42
2023-04-08T19:35:24.228Z,39.90
2023-04-08T19:37:52.153Z,34.90
2023-04-08T19:40:20.560Z,80.75
2023-04-08T19:42:48.310Z,81.22
2023-04-08T19:45:16.128Z,34.55
2023-04-08T19:47:44.874Z,32.88
2023-04-08T19:50:15.519Z,33.78
2023-04-08T19:52:43.206Z,30.40
2023-04-08T19:55:11.270Z,32.15
2023-04-08T19:57:39.226Z,35.92
2023-04-08T20:00:08.357Z,37.55
2023-04-08T20:02:36.297Z,33.03
2023-04-08T20:05:04.259Z,35.20
2023-04-08T20:07:33.482Z,35.45
2023-04-08T20:10:01.267Z,34.45
2023-04-08T20:12:30.226Z,34.22
2023-04-08T20:14:57.933Z,33.40
2023-04-08T20:17:26.435Z,38.88
2023-04-08T20:19:54.227Z,38.58
2023-04-08T20:22:22.305Z,39.63
2023-04-08T20:24:51.567Z,40.55
2023-04-08T20:27:19.860Z,40.38
2023-04-08T20:29:47.695Z,42.15
2023-04-08T20:32:15.504Z,39.67
2023-04-08T20:34:43.369Z,36.38
2023-04-08T20:37:11.779Z,39.03
2023-04-08T20:39:39.617Z,39.50
2023-04-08T20:42:09.471Z,38.75
2023-04-08T20:44:37.357Z,39.80
2023-04-08T20:47:05.335Z,38.47
2023-04-08T20:49:34.690Z,38.72
2023-04-08T20:52:02.537Z,38.65
2023-04-08T20:54:31.682Z,38.72
2023-04-08T20:56:59.668Z,35.33
2023-04-08T20:59:28.955Z,36.15
2023-04-08T21:01:56.818Z,34.38
2023-04-08T21:04:24.685Z,36.40
2023-04-08T21:06:52.464Z,32.50
2023-04-08T21:09:20.224Z,29.17
2023-04-08T21:11:47.989Z,26.85
2023-04-08T21:14:15.786Z,24.38
2023-04-08T21:16:45.015Z,25.88
2023-04-08T21:19:12.843Z,24.58
2023-04-08T21:21:41.038Z,26.23
2023-04-08T21:24:09.877Z,26.75
2023-04-08T21:26:37.717Z,26.60
2023-04-08T21:29:05.462Z,26.95
2023-04-08T21:31:33.296Z,24.58
2023-04-08T21:34:02.462Z,23.15
2023-04-08T21:36:31.385Z,25.42
2023-04-08T21:38:59.112Z,26.27
2023-04-08T21:41:28.417Z,24.80
2023-04-08T21:43:58.258Z,20.20
2023-04-08T21:46:26.233Z,20.80
2023-04-08T21:48:54.163Z,21.48
2023-04-08T21:51:23.449Z,23.83
2023-04-08T21:53:51.931Z,22.27
2023-04-08T21:56:19.955Z,22.00
2023-04-08T21:58:47.719Z,25.27
2023-04-08T22:01:15.712Z,24.90
2023-04-08T22:03:43.936Z,25.95
2023-04-08T22:06:16.707Z,24.13
2023-04-08T22:08:54.785Z,22.85
2023-04-08T22:11:22.833Z,25.58
2023-04-08T22:13:50.587Z,25.85
2023-04-08T22:16:18.628Z,24.65
2023-04-08T22:18:46.524Z,24.60
2023-04-08T22:21:14.876Z,22.05
2023-04-08T22:23:42.828Z,26.67
2023-04-08T22:26:13.013Z,25.73
2023-04-08T22:28:41.346Z,24.25
2023-04-08T22:31:10.412Z,23.30
2023-04-08T22:33:38.633Z,25.45
2023-04-08T22:36:06.963Z,26.02
2023-04-08T22:38:34.705Z,25.40
2023-04-08T22:41:02.587Z,24.65
2023-04-08T22:43:31.755Z,26.80
2023-04-08T22:45:59.573Z,33.92
2023-04-08T22:48:27.283Z,31.58
2023-04-08T22:50:55.072Z,32.88
2023-04-08T23:01:47.799Z,26.90
2023-04-08T23:04:15.818Z,25.42
2023-04-08T23:06:43.529Z,31.50
2023-04-08T23:09:11.209Z,27.85
2023-04-08T23:11:38.933Z,29.15
2023-04-08T23:14:06.637Z,29.73
2023-04-08T23:16:35.770Z,30.42
2023-04-08T23:19:03.475Z,29.65
2023-04-08T23:21:31.184Z,32.05
2023-04-08T23:23:58.872Z,31.08
2023-04-08T23:26:26.648Z,30.15
2023-04-08T23:28:54.507Z,26.52
2023-04-08T23:31:22.286Z,27.88
2023-04-08T23:33:51.398Z,26.40
2023-04-08T23:36:19.153Z,27.48
2023-04-08T23:38:46.796Z,25.08
2023-04-08T23:41:14.480Z,29.00
2023-04-08T23:43:42.187Z,30.65
2023-04-08T23:46:09.955Z,28.42
2023-04-08T23:48:37.687Z,29.77
2023-04-08T23:51:07.112Z,29.30
2023-04-08T23:53:34.756Z,29.30
2023-04-08T23:56:06.697Z,29.13
2023-04-08T23:58:34.479Z,28.77
